logo
Search for airport 
image banner adimage banner adimage banner ad
image banner ad

CA615 - Quebec(Surete Du Quebec)(Csq2)

Located in , Canada

ICAO - , IATA -

Data provided by Airmate  

General information

Coordinates: N46°50'2" W71°17'2"
Elevation is feet MSL.
 
View others Airports in Quebec

Operational data

Special qualification required
Current time UTC:
Current local time:
Weather at : CYQB - Quebec/Jean Lesage Intl ( 10 km )
METAR: CYQB 012300Z 00000KT 15SM BKN029 BKN045 M14/M18 A3013 RMK SC6SC1 SLP214
TAF: TAF CYQB 062340Z 0700/0724 07008KT P6SM SKC FM070900 07008KT P6SM FEW010 FM071700 08010KT P6SM BKN200 FM072300 05008KT 2 1/2SM -SN FEW025 OVC040 RMK NXT FCST BY 070600Z
View NOTAMs / SUP AIP / TFR affecting this airport [VIEW]
Communications frequencies: [VIEW]

Runways:

Airport contact information

Address: Canada

Satellite view of CA615